createdAt,value
2019-04-27T00:01:40.607Z,71.07
2019-04-27T00:04:34.295Z,70.92
2019-04-27T00:07:24.331Z,70.74
2019-04-27T00:09:58.610Z,70.72
2019-04-27T00:12:28.892Z,70.85
2019-04-27T00:14:59.521Z,70.82
2019-04-27T00:17:58.278Z,70.79
2019-04-27T00:20:53.567Z,70.69
2019-04-27T00:23:24.855Z,70.45
2019-04-27T00:25:55.402Z,70.36
2019-04-27T00:28:25.855Z,70.34
2019-04-27T00:30:56.658Z,70.37
2019-04-27T00:33:27.006Z,70.33
2019-04-27T00:36:08.480Z,70.35
2019-04-27T00:39:03.526Z,70.10
2019-04-27T00:41:34.672Z,70.16
2019-04-27T00:44:05.073Z,70.25
2019-04-27T00:46:35.562Z,70.47
2019-04-27T00:49:07.279Z,70.47
2019-04-27T00:51:37.725Z,70.89
2019-04-27T00:54:08.100Z,71.23
2019-04-27T00:57:03.253Z,71.47
2019-04-27T00:59:55.097Z,71.72
2019-04-27T01:02:43.504Z,71.94
2019-04-27T01:05:18.427Z,72.18
2019-04-27T01:07:48.822Z,72.41
2019-04-27T01:10:19.351Z,72.57
2019-04-27T01:12:49.861Z,72.65
2019-04-27T01:15:20.455Z,72.85
2019-04-27T01:17:50.937Z,72.98
2019-04-27T01:20:21.327Z,73.01
2019-04-27T01:22:51.823Z,73.08
2019-04-27T01:25:23.946Z,73.14
2019-04-27T01:28:01.247Z,73.12
2019-04-27T01:30:42.705Z,73.26
2019-04-27T01:33:13.231Z,73.40
2019-04-27T01:35:43.633Z,73.48
2019-04-27T01:38:13.991Z,74.13
2019-04-27T01:40:44.321Z,74.12
2019-04-27T01:43:14.698Z,74.23
2019-04-27T01:45:45.142Z,74.35
2019-04-27T01:48:30.611Z,74.22
2019-04-27T01:51:09.111Z,74.26
2019-04-27T01:53:39.163Z,74.36
2019-04-27T01:56:09.655Z,74.43
2019-04-27T01:58:40.022Z,74.39
2019-04-27T02:01:25.665Z,74.40
2019-04-27T02:04:24.629Z,74.47
2019-04-27T02:06:58.890Z,74.46
2019-04-27T02:09:29.565Z,74.42
2019-04-27T02:12:00.038Z,74.51
2019-04-27T02:14:30.442Z,74.49
2019-04-27T02:17:00.967Z,74.56
2019-04-27T02:19:31.932Z,74.66
2019-04-27T02:22:02.428Z,74.73
2019-04-27T02:24:32.787Z,74.83
2019-04-27T02:27:03.258Z,74.86
2019-04-27T02:29:50.777Z,74.95
2019-04-27T02:32:35.072Z,74.88
2019-04-27T02:35:09.306Z,74.71
2019-04-27T02:37:40.458Z,74.78
2019-04-27T02:40:53.228Z,74.74
2019-04-27T02:43:29.667Z,74.78
2019-04-27T02:46:00.617Z,74.72
2019-04-27T02:48:31.007Z,74.63
2019-04-27T02:51:04.230Z,74.68
2019-04-27T02:53:52.214Z,74.63
2019-04-27T02:56:22.740Z,74.63
2019-04-27T02:58:53.269Z,74.64
2019-04-27T03:01:25.357Z,74.71
2019-04-27T03:03:56.058Z,74.70
2019-04-27T03:06:26.580Z,74.80
2019-04-27T03:08:57.073Z,74.74
2019-04-27T03:11:30.485Z,74.73
2019-04-27T03:14:29.383Z,74.81
2019-04-27T03:17:00.211Z,74.88
2019-04-27T03:19:53.581Z,74.87
2019-04-27T03:22:45.232Z,74.98
2019-04-27T03:25:35.026Z,75.06
2019-04-27T03:28:11.149Z,75.07
2019-04-27T03:30:43.468Z,74.91
2019-04-27T03:33:14.043Z,75.00
2019-04-27T03:35:44.432Z,75.06
2019-04-27T03:38:14.950Z,75.18
2019-04-27T03:40:45.479Z,75.20
2019-04-27T03:43:20.210Z,75.39
2019-04-27T03:45:52.478Z,75.42
2019-04-27T03:48:22.925Z,75.52
2019-04-27T03:51:14.948Z,75.56
2019-04-27T03:54:13.381Z,75.68
2019-04-27T03:56:46.471Z,75.71
2019-04-27T03:59:23.423Z,75.76
2019-04-27T04:01:53.783Z,75.77
2019-04-27T04:04:24.074Z,75.78
2019-04-27T04:06:54.354Z,75.73
2019-04-27T04:09:40.338Z,75.75
2019-04-27T04:12:19.742Z,75.78
2019-04-27T04:14:49.911Z,75.86
2019-04-27T04:17:21.835Z,75.84
2019-04-27T04:19:57.463Z,75.85
2019-04-27T04:22:24.755Z,75.90
2019-04-27T04:24:55.414Z,75.94
2019-04-27T04:27:26.070Z,75.90
2019-04-27T04:29:59.237Z,75.80
2019-04-27T04:32:29.789Z,75.86
2019-04-27T04:35:21.858Z,75.73
2019-04-27T04:37:53.398Z,75.76
2019-04-27T04:43:23.377Z,75.60
2019-04-27T04:46:13.171Z,75.45
2019-04-27T04:48:43.562Z,75.52
2019-04-27T04:51:14.051Z,75.40
2019-04-27T04:53:44.626Z,75.33
2019-04-27T04:56:15.200Z,75.28
2019-04-27T04:58:45.590Z,75.17
2019-04-27T05:01:16.229Z,75.03
2019-04-27T05:03:46.711Z,74.87
2019-04-27T05:06:18.993Z,74.81
2019-04-27T05:08:49.508Z,74.63
2019-04-27T05:11:19.966Z,74.47
2019-04-27T05:13:50.646Z,73.89
2019-04-27T05:18:46.387Z,73.79
2019-04-27T05:21:35.651Z,73.63
2019-04-27T05:24:09.211Z,73.45
2019-04-27T05:26:39.799Z,73.17
2019-04-27T05:31:42.321Z,72.71
2019-04-27T05:34:13.451Z,72.42
2019-04-27T05:36:48.987Z,72.30
2019-04-27T05:39:18.074Z,71.07
2019-04-27T05:41:49.750Z,71.35
2019-04-27T05:44:45.512Z,71.23
2019-04-27T05:47:26.182Z,71.02
2019-04-27T05:50:03.072Z,70.83
2019-04-27T05:52:33.726Z,70.80
2019-04-27T05:55:04.486Z,70.73
2019-04-27T05:57:34.872Z,70.63
2019-04-27T06:00:06.121Z,70.58
2019-04-27T06:02:36.613Z,70.50
2019-04-27T06:05:09.141Z,70.58
2019-04-27T06:07:39.805Z,70.62
2019-04-27T06:10:10.572Z,70.54
2019-04-27T06:12:41.397Z,70.40
2019-04-27T06:15:13.260Z,70.18
2019-04-27T06:17:43.871Z,70.11
2019-04-27T06:20:14.875Z,70.13
2019-04-27T06:22:45.434Z,70.02
2019-04-27T06:25:15.971Z,70.01
2019-04-27T06:27:46.497Z,70.06
2019-04-27T06:30:16.936Z,70.15
2019-04-27T06:32:49.312Z,70.43
2019-04-27T06:35:19.691Z,70.63
2019-04-27T06:37:50.215Z,70.52
2019-04-27T06:40:20.957Z,70.57
2019-04-27T06:42:51.905Z,70.53
2019-04-27T06:45:22.618Z,70.42
2019-04-27T06:47:53.207Z,70.33
2019-04-27T06:50:23.787Z,70.43
2019-04-27T06:52:54.316Z,70.32
2019-04-27T06:55:24.857Z,70.14
2019-04-27T06:57:55.424Z,70.19
2019-04-27T07:00:26.003Z,70.10
2019-04-27T07:02:56.662Z,70.10
2019-04-27T07:05:28.755Z,70.15
2019-04-27T07:07:59.601Z,70.09
2019-04-27T07:10:30.068Z,70.34
2019-04-27T07:13:00.682Z,70.49
2019-04-27T07:15:31.395Z,70.39
2019-04-27T07:18:01.856Z,70.35
2019-04-27T07:20:32.593Z,70.22
2019-04-27T07:23:03.201Z,70.27
2019-04-27T07:25:33.675Z,70.10
2019-04-27T07:28:04.424Z,70.06
2019-04-27T07:30:34.655Z,70.05
2019-04-27T07:33:04.938Z,70.24
2019-04-27T07:35:35.365Z,70.13
2019-04-27T07:38:06.724Z,70.05
2019-04-27T07:40:40.006Z,70.04
2019-04-27T07:43:16.413Z,69.73
2019-04-27T07:45:46.794Z,69.58
2019-04-27T07:48:18.797Z,69.29
2019-04-27T07:50:49.229Z,69.18
2019-04-27T07:53:19.439Z,69.01
2019-04-27T07:55:49.862Z,68.76
2019-04-27T07:58:20.531Z,68.85
2019-04-27T08:00:51.991Z,69.02
2019-04-27T08:03:22.287Z,69.37
2019-04-27T08:05:55.674Z,69.71
2019-04-27T08:08:25.900Z,69.79
2019-04-27T08:10:56.035Z,69.75
2019-04-27T08:13:27.383Z,69.79
2019-04-27T08:15:59.028Z,70.06
2019-04-27T08:18:29.935Z,70.27
2019-04-27T08:21:00.334Z,70.10
2019-04-27T08:23:30.539Z,70.26
2019-04-27T08:26:00.853Z,70.68
2019-04-27T08:28:56.316Z,70.93
2019-04-27T08:31:35.286Z,70.98
2019-04-27T08:34:08.541Z,71.19
2019-04-27T08:36:38.937Z,71.23
2019-04-27T08:39:09.470Z,71.46
2019-04-27T08:41:39.826Z,71.43
2019-04-27T08:44:10.143Z,71.54
2019-04-27T08:46:40.310Z,71.61
2019-04-27T08:49:10.445Z,71.83
2019-04-27T08:51:41.610Z,71.90
2019-04-27T08:54:11.869Z,72.03
2019-04-27T08:56:42.290Z,72.04
2019-04-27T08:59:12.725Z,72.13
2019-04-27T09:01:42.974Z,72.32
2019-04-27T09:04:13.200Z,72.19
2019-04-27T09:06:44.993Z,72.09
2019-04-27T09:09:24.485Z,71.78
2019-04-27T09:12:00.781Z,71.47
2019-04-27T09:14:36.483Z,71.42
2019-04-27T09:17:17.136Z,71.04
2019-04-27T09:19:53.400Z,70.81
2019-04-27T09:22:23.698Z,70.57
2019-04-27T09:24:54.012Z,70.51
2019-04-27T09:27:24.374Z,70.47
2019-04-27T09:29:54.664Z,70.67
2019-04-27T09:32:25.097Z,70.52
2019-04-27T09:34:56.964Z,70.49
2019-04-27T09:37:27.556Z,70.82
2019-04-27T09:39:57.846Z,70.95
2019-04-27T09:42:28.204Z,70.80
2019-04-27T09:44:59.126Z,70.68
2019-04-27T09:47:29.557Z,70.49
2019-04-27T09:49:59.765Z,70.78
2019-04-27T09:52:30.175Z,70.04
2019-04-27T09:55:00.349Z,69.47
2019-04-27T09:57:30.711Z,69.58
2019-04-27T10:00:01.153Z,69.45
2019-04-27T10:02:31.499Z,69.60
2019-04-27T10:05:01.915Z,69.45
2019-04-27T10:07:32.167Z,69.25
2019-04-27T10:10:02.403Z,69.34
2019-04-27T10:12:34.360Z,69.21
2019-04-27T10:15:06.727Z,69.12
2019-04-27T10:17:37.178Z,69.21
2019-04-27T10:20:08.481Z,69.21
2019-04-27T10:22:42.858Z,69.01
2019-04-27T10:25:23.139Z,69.08
2019-04-27T10:27:59.270Z,69.08
2019-04-27T10:30:31.007Z,69.22
2019-04-27T10:33:01.440Z,69.11
2019-04-27T10:35:31.758Z,68.83
2019-04-27T10:38:02.001Z,68.77
2019-04-27T10:40:32.304Z,68.71
2019-04-27T10:43:03.252Z,68.69
2019-04-27T10:45:33.596Z,68.56
2019-04-27T10:48:04.050Z,68.59
2019-04-27T10:50:36.444Z,68.44
2019-04-27T10:53:07.281Z,68.58
2019-04-27T10:55:37.657Z,68.55
2019-04-27T10:58:08.113Z,68.42
2019-04-27T11:00:43.939Z,68.08
2019-04-27T11:03:16.725Z,67.96
2019-04-27T11:06:03.634Z,67.62
2019-04-27T11:08:33.866Z,67.36
2019-04-27T11:11:04.185Z,67.24
2019-04-27T11:13:36.207Z,67.20
2019-04-27T11:16:07.101Z,67.25
2019-04-27T11:18:37.337Z,67.08
2019-04-27T11:21:07.517Z,67.00
2019-04-27T11:23:37.764Z,66.81
2019-04-27T11:26:07.880Z,66.55
2019-04-27T11:28:37.989Z,66.35
2019-04-27T11:31:09.172Z,66.04
2019-04-27T11:33:39.527Z,66.31
2019-04-27T11:36:27.289Z,65.99
2019-04-27T11:38:58.677Z,65.57
2019-04-27T11:41:29.012Z,65.57
2019-04-27T11:43:59.237Z,65.00
2019-04-27T11:46:29.571Z,64.37
2019-04-27T11:48:59.840Z,63.48
2019-04-27T11:51:30.194Z,62.50
2019-04-27T11:54:00.459Z,62.39
2019-04-27T11:56:30.809Z,61.55
2019-04-27T11:59:01.148Z,61.02
2019-04-27T12:01:31.484Z,60.90
2019-04-27T12:04:01.791Z,60.31
2019-04-27T12:06:32.225Z,59.32
2019-04-27T12:09:02.517Z,59.39
2019-04-27T12:11:32.685Z,59.00
2019-04-27T12:14:02.961Z,58.84
2019-04-27T12:16:33.236Z,59.00
2019-04-27T12:19:03.662Z,59.34
2019-04-27T12:21:33.942Z,59.61
2019-04-27T12:24:04.802Z,59.62
2019-04-27T12:26:44.983Z,59.97
2019-04-27T12:29:18.449Z,60.15
2019-04-27T12:31:56.075Z,60.21
2019-04-27T12:34:27.879Z,60.00
2019-04-27T12:36:57.709Z,59.82
2019-04-27T12:39:27.996Z,60.12
2019-04-27T12:41:58.351Z,60.04
2019-04-27T12:44:28.685Z,59.96
2019-04-27T12:47:02.712Z,59.98
2019-04-27T12:49:31.024Z,60.13
2019-04-27T12:52:01.494Z,60.25
2019-04-27T12:54:46.371Z,60.28
2019-04-27T12:57:36.287Z,60.17
2019-04-27T13:00:30.298Z,59.94
2019-04-27T13:03:00.714Z,59.31
2019-04-27T13:05:31.485Z,59.10
2019-04-27T13:08:01.758Z,59.21
2019-04-27T13:10:32.062Z,59.13
2019-04-27T13:13:02.316Z,58.88
2019-04-27T13:15:32.704Z,58.91
2019-04-27T13:18:03.112Z,59.16
2019-04-27T13:20:33.458Z,59.39
2019-04-27T13:23:03.862Z,59.48
2019-04-27T13:25:34.222Z,59.50
2019-04-27T13:28:05.676Z,59.34
2019-04-27T13:30:36.183Z,59.37
2019-04-27T13:33:06.972Z,59.11
2019-04-27T13:35:37.343Z,59.07
2019-04-27T13:38:07.631Z,58.98
2019-04-27T13:40:39.729Z,58.92
2019-04-27T13:43:22.065Z,59.13
2019-04-27T13:46:23.461Z,59.65
2019-04-27T13:49:11.251Z,60.82
2019-04-27T13:52:01.295Z,62.80
2019-04-27T13:54:31.585Z,64.68
2019-04-27T13:57:01.929Z,65.51
2019-04-27T13:59:32.131Z,66.12
2019-04-27T14:02:02.481Z,66.62
2019-04-27T14:04:32.778Z,66.67
2019-04-27T14:07:03.278Z,66.95
2019-04-27T14:09:33.567Z,67.23
2019-04-27T14:12:21.414Z,63.91
2019-04-27T14:14:52.012Z,60.98
2019-04-27T14:17:22.293Z,57.56
2019-04-27T14:19:52.514Z,55.08
2019-04-27T14:22:22.714Z,52.29
2019-04-27T14:24:53.173Z,48.81
2019-04-27T14:27:25.660Z,46.45
2019-04-27T14:29:57.647Z,43.21
2019-04-27T14:32:28.718Z,39.50
2019-04-27T14:34:59.282Z,39.62
2019-04-27T14:37:29.539Z,37.96
2019-04-27T14:39:59.948Z,41.34
2019-04-27T14:42:30.177Z,44.57
2019-04-27T14:45:00.658Z,47.79
2019-04-27T14:47:31.244Z,50.37
2019-04-27T14:50:01.492Z,52.61
2019-04-27T14:52:31.743Z,50.56
2019-04-27T14:55:02.153Z,46.84
2019-04-27T14:57:32.438Z,43.90
2019-04-27T15:00:02.773Z,43.44
2019-04-27T15:02:33.192Z,45.38
2019-04-27T15:05:03.655Z,46.42
2019-04-27T15:07:34.419Z,46.98
2019-04-27T15:10:04.857Z,47.67
2019-04-27T15:12:35.338Z,43.17
2019-04-27T15:15:06.739Z,39.53
2019-04-27T15:17:37.048Z,37.48
2019-04-27T15:20:11.866Z,37.62
2019-04-27T15:22:42.459Z,37.47
2019-04-27T15:25:15.584Z,35.27
2019-04-27T15:27:50.610Z,35.45
2019-04-27T15:30:29.937Z,37.88
2019-04-27T15:33:21.879Z,40.26
2019-04-27T15:35:59.485Z,42.95
2019-04-27T15:38:33.328Z,46.65
2019-04-27T15:41:34.404Z,47.82
2019-04-27T15:44:08.855Z,48.29
2019-04-27T15:46:39.103Z,46.07
2019-04-27T15:49:11.264Z,43.15
2019-04-27T15:51:42.452Z,42.20
2019-04-27T15:54:12.629Z,43.64
2019-04-27T15:56:43.019Z,45.36
2019-04-27T15:59:13.281Z,46.43
2019-04-27T16:01:43.637Z,46.89
2019-04-27T16:04:14.180Z,42.93
2019-04-27T16:06:47.559Z,40.52
2019-04-27T16:09:24.316Z,37.36
2019-04-27T16:11:58.731Z,36.09
2019-04-27T16:14:22.812Z,35.13
2019-04-27T16:16:53.395Z,33.86
2019-04-27T16:19:24.012Z,32.67
2019-04-27T16:21:54.634Z,31.51
2019-04-27T16:24:25.164Z,32.05
2019-04-27T16:26:56.545Z,30.92
2019-04-27T16:29:28.092Z,30.53
2019-04-27T16:32:02.781Z,30.92
2019-04-27T16:34:36.982Z,30.62
2019-04-27T16:37:04.167Z,30.49
2019-04-27T16:39:38.761Z,29.98
2019-04-27T16:42:09.973Z,28.75
2019-04-27T16:44:40.234Z,29.00
2019-04-27T16:47:12.490Z,31.75
2019-04-27T16:49:44.199Z,33.86
2019-04-27T16:52:15.913Z,36.38
2019-04-27T16:54:49.945Z,38.91
2019-04-27T16:57:19.582Z,40.80
2019-04-27T16:59:54.825Z,41.88
2019-04-27T17:02:25.121Z,41.72
2019-04-27T17:05:03.361Z,38.50
2019-04-27T17:07:41.758Z,37.97
2019-04-27T17:10:11.283Z,38.63
2019-04-27T17:12:45.806Z,40.51
2019-04-27T17:15:31.350Z,42.09
2019-04-27T17:18:19.867Z,43.43
2019-04-27T17:20:52.718Z,44.64
2019-04-27T17:23:31.677Z,45.80
2019-04-27T17:26:09.551Z,46.97
2019-04-27T17:28:40.204Z,47.84
2019-04-27T17:31:12.886Z,47.70
2019-04-27T17:33:48.777Z,44.99
2019-04-27T17:36:20.296Z,41.77
2019-04-27T17:38:51.213Z,40.90
2019-04-27T17:41:21.692Z,38.43
2019-04-27T17:43:51.938Z,37.58
2019-04-27T17:46:22.311Z,36.39
2019-04-27T17:48:52.755Z,35.86
2019-04-27T17:51:23.230Z,35.92
2019-04-27T17:53:53.615Z,35.80
2019-04-27T17:56:35.359Z,35.05
2019-04-27T17:58:58.445Z,35.57
2019-04-27T18:01:31.844Z,38.16
2019-04-27T18:04:03.010Z,40.54
2019-04-27T18:06:33.904Z,42.41
2019-04-27T18:09:08.266Z,44.23
2019-04-27T18:11:39.150Z,44.57
2019-04-27T18:14:14.563Z,43.10
2019-04-27T18:16:43.871Z,41.64
2019-04-27T18:22:10.145Z,43.82
2019-04-27T18:24:48.630Z,44.50
2019-04-27T18:27:26.709Z,45.71
2019-04-27T18:30:10.529Z,47.02
2019-04-27T18:32:41.539Z,48.39
2019-04-27T18:35:12.329Z,49.78
2019-04-27T18:37:43.045Z,50.98
2019-04-27T18:40:13.814Z,51.96
2019-04-27T18:42:45.080Z,52.77
2019-04-27T18:45:18.703Z,53.62
2019-04-27T18:47:54.840Z,54.36
2019-04-27T18:50:38.345Z,54.99
2019-04-27T18:55:44.029Z,56.41
2019-04-27T18:58:14.702Z,56.78
2019-04-27T19:00:45.324Z,57.17
2019-04-27T19:03:16.165Z,57.67
2019-04-27T19:05:48.186Z,57.99
2019-04-27T19:08:21.943Z,58.37
2019-04-27T19:10:52.700Z,58.78
2019-04-27T19:16:02.878Z,59.77
2019-04-27T19:24:15.900Z,60.53
2019-04-27T19:27:18.074Z,60.59
2019-04-27T19:30:02.548Z,60.73
2019-04-27T19:32:33.254Z,60.95
2019-04-27T19:35:04.090Z,61.08
2019-04-27T19:37:34.574Z,61.37
2019-04-27T19:40:08.613Z,61.57
2019-04-27T19:42:39.184Z,62.01
2019-04-27T19:45:11.214Z,62.41
2019-04-27T19:47:54.060Z,62.59
2019-04-27T19:50:24.630Z,62.91
2019-04-27T19:52:58.746Z,63.08
2019-04-27T19:55:30.324Z,63.22
2019-04-27T19:58:02.446Z,63.35
2019-04-27T20:01:11.158Z,63.41
2019-04-27T20:03:39.598Z,63.50
2019-04-27T20:06:10.430Z,63.55
2019-04-27T20:08:43.427Z,63.70
2019-04-27T20:11:15.947Z,63.78
2019-04-27T20:13:46.873Z,63.88
2019-04-27T20:16:17.651Z,64.03
2019-04-27T20:19:06.204Z,64.23
2019-04-27T20:21:37.337Z,64.38
2019-04-27T20:24:09.561Z,64.54
2019-04-27T20:26:40.545Z,64.63
2019-04-27T20:29:11.910Z,64.78
2019-04-27T20:31:45.167Z,64.83
2019-04-27T20:34:26.526Z,64.87
2019-04-27T20:36:57.246Z,64.97
2019-04-27T20:39:27.785Z,64.96
2019-04-27T20:41:58.434Z,65.03
2019-04-27T20:44:34.169Z,65.14
2019-04-27T20:47:04.816Z,65.29
2019-04-27T20:49:35.542Z,65.39
2019-04-27T20:52:25.540Z,65.59
2019-04-27T20:54:56.602Z,65.69
2019-04-27T20:57:29.539Z,65.77
2019-04-27T21:00:01.954Z,65.56
2019-04-27T21:02:51.955Z,65.44
2019-04-27T21:05:45.329Z,65.24
2019-04-27T21:08:15.875Z,65.20
2019-04-27T21:10:46.473Z,65.31
2019-04-27T21:13:17.047Z,65.50
2019-04-27T21:15:47.840Z,65.76
2019-04-27T21:18:18.280Z,66.13
2019-04-27T21:20:48.979Z,66.29
2019-04-27T21:23:31.184Z,66.35
2019-04-27T21:26:02.271Z,66.66
2019-04-27T21:28:34.449Z,66.78
2019-04-27T21:31:05.216Z,66.76
2019-04-27T21:33:36.029Z,66.73
2019-04-27T21:36:07.877Z,66.62
2019-04-27T21:38:38.294Z,66.70
2019-04-27T21:41:14.923Z,66.70
2019-04-27T21:43:48.186Z,66.73
2019-04-27T21:46:26.308Z,66.84
2019-04-27T21:48:57.240Z,67.07
2019-04-27T21:51:29.645Z,67.27
2019-04-27T21:54:30.800Z,67.37
2019-04-27T21:57:02.797Z,67.64
2019-04-27T21:59:34.988Z,67.80
2019-04-27T22:02:07.364Z,67.91
2019-04-27T22:04:38.078Z,68.00
2019-04-27T22:07:09.028Z,68.26
2019-04-27T22:09:43.038Z,68.19
2019-04-27T22:12:22.956Z,68.33
2019-04-27T22:14:53.966Z,68.52
2019-04-27T22:17:24.328Z,68.76
2019-04-27T22:19:56.326Z,69.03
2019-04-27T22:22:33.885Z,69.18
2019-04-27T22:25:11.540Z,69.42
2019-04-27T22:27:52.551Z,69.66
2019-04-27T22:30:21.903Z,69.88
2019-04-27T22:32:56.409Z,70.10
2019-04-27T22:35:26.862Z,70.12
2019-04-27T22:38:01.960Z,70.12
2019-04-27T22:41:04.630Z,70.02
2019-04-27T22:43:56.950Z,70.04
2019-04-27T22:46:27.798Z,69.97
2019-04-27T22:49:01.836Z,70.11
2019-04-27T22:51:32.599Z,70.16
2019-04-27T22:54:11.800Z,70.32
2019-04-27T22:56:44.760Z,70.29
2019-04-27T22:59:43.309Z,70.26
2019-04-27T23:02:31.972Z,70.29
2019-04-27T23:05:10.752Z,70.29
2019-04-27T23:07:41.525Z,70.31
2019-04-27T23:10:12.468Z,70.38
2019-04-27T23:12:43.197Z,70.51
2019-04-27T23:15:18.144Z,70.65
2019-04-27T23:18:02.496Z,70.87
2019-04-27T23:20:35.624Z,71.01
2019-04-27T23:23:07.693Z,71.14
2019-04-27T23:25:41.018Z,71.37
2019-04-27T23:28:11.446Z,71.39
2019-04-27T23:31:13.338Z,71.50
2019-04-27T23:33:47.716Z,71.70
2019-04-27T23:36:18.833Z,71.67
2019-04-27T23:38:50.875Z,71.79
2019-04-27T23:41:21.390Z,71.94
2019-04-27T23:43:52.400Z,72.08
2019-04-27T23:46:24.912Z,72.16
2019-04-27T23:49:08.995Z,72.27
2019-04-27T23:52:03.558Z,72.29
2019-04-27T23:54:36.020Z,72.50
2019-04-27T23:57:07.949Z,72.62
2019-04-27T23:59:38.755Z,72.66
